createdAt,value
2023-04-09T00:00:13.634Z,4.30
2023-04-09T00:02:40.842Z,4.63
2023-04-09T00:05:07.921Z,4.00
2023-04-09T00:07:34.690Z,4.50
2023-04-09T00:10:01.533Z,4.10
2023-04-09T00:12:30.211Z,4.47
2023-04-09T00:14:57.670Z,4.97
2023-04-09T00:17:24.569Z,4.40
2023-04-09T00:19:51.363Z,4.97
2023-04-09T00:22:18.092Z,4.50
2023-04-09T00:24:44.750Z,4.13
2023-04-09T00:27:11.477Z,4.57
2023-04-09T00:29:38.199Z,4.33
2023-04-09T00:32:05.312Z,4.07
2023-04-09T00:34:32.098Z,4.27
2023-04-09T00:36:58.857Z,4.83
2023-04-09T00:39:25.619Z,6.47
2023-04-09T00:42:02.410Z,6.10
2023-04-09T00:44:30.329Z,5.77
2023-04-09T00:46:58.938Z,6.60
2023-04-09T00:49:26.400Z,5.70
2023-04-09T00:51:53.789Z,5.33
2023-04-09T00:54:20.794Z,8.13
2023-04-09T00:56:47.960Z,8.27
2023-04-09T00:59:15.298Z,9.50
2023-04-09T01:01:42.001Z,14.23
2023-04-09T01:04:09.031Z,16.40
2023-04-09T01:06:38.672Z,15.77
2023-04-09T01:09:30.965Z,15.20
2023-04-09T01:12:12.196Z,13.97
2023-04-09T01:14:59.276Z,13.33
2023-04-09T01:17:34.536Z,11.87
2023-04-09T01:20:05.233Z,8.70
2023-04-09T01:23:02.660Z,9.67
2023-04-09T01:25:51.377Z,10.97
2023-04-09T01:28:27.778Z,11.83
2023-04-09T01:31:01.564Z,10.90
2023-04-09T01:33:30.786Z,10.40
2023-04-09T01:35:58.789Z,8.97
2023-04-09T01:38:26.696Z,8.80
2023-04-09T01:40:56.105Z,6.70
2023-04-09T01:43:24.233Z,7.10
2023-04-09T01:45:51.850Z,6.40
2023-04-09T01:48:19.643Z,4.90
2023-04-09T01:50:46.708Z,5.10
2023-04-09T01:53:14.005Z,6.70
2023-04-09T01:55:40.696Z,6.60
2023-04-09T01:58:07.370Z,5.97
2023-04-09T02:00:46.684Z,5.37
2023-04-09T02:03:28.370Z,4.53
2023-04-09T02:06:15.653Z,4.30
2023-04-09T02:08:47.689Z,4.20
2023-04-09T02:11:16.093Z,4.73
2023-04-09T02:13:44.095Z,4.57
2023-04-09T02:16:13.374Z,4.37
2023-04-09T02:18:40.155Z,4.60
2023-04-09T02:21:07.350Z,4.03
2023-04-09T02:23:34.947Z,3.83
2023-04-09T02:26:01.758Z,4.13
2023-04-09T02:28:28.686Z,4.00
2023-04-09T02:30:55.656Z,4.40
2023-04-09T02:33:22.401Z,5.03
2023-04-09T02:35:49.329Z,4.63
2023-04-09T02:38:16.151Z,4.70
2023-04-09T02:40:43.143Z,4.83
2023-04-09T02:43:10.471Z,4.67
2023-04-09T02:45:37.198Z,4.40
2023-04-09T02:48:04.130Z,3.90
2023-04-09T02:50:34.541Z,4.40
2023-04-09T02:53:01.499Z,4.37
2023-04-09T02:55:28.400Z,4.53
2023-04-09T02:57:55.215Z,4.87
2023-04-09T03:00:22.081Z,4.93
2023-04-09T03:02:48.842Z,4.80
2023-04-09T03:05:15.726Z,4.37
2023-04-09T03:07:42.571Z,4.97
2023-04-09T03:10:09.772Z,4.30
2023-04-09T03:12:36.520Z,4.80
2023-04-09T03:15:04.528Z,5.00
2023-04-09T03:17:32.035Z,4.77
2023-04-09T03:19:59.223Z,5.00
2023-04-09T03:22:38.080Z,4.10
2023-04-09T03:25:09.903Z,4.33
2023-04-09T03:27:36.606Z,4.20
2023-04-09T03:30:03.968Z,4.70
2023-04-09T03:32:39.501Z,4.93
2023-04-09T03:35:07.204Z,3.90
2023-04-09T03:37:33.886Z,5.00
2023-04-09T03:40:01.614Z,4.37
2023-04-09T03:42:31.253Z,4.80
2023-04-09T03:44:58.076Z,4.73
2023-04-09T03:47:39.428Z,4.80
2023-04-09T03:50:07.056Z,5.03
2023-04-09T03:52:45.516Z,4.60
2023-04-09T03:55:12.324Z,4.27
2023-04-09T03:57:38.984Z,4.87
2023-04-09T04:00:09.593Z,4.63
2023-04-09T04:02:50.682Z,4.77
2023-04-09T04:05:26.050Z,4.83
2023-04-09T04:07:54.615Z,4.13
2023-04-09T04:10:26.963Z,4.43
2023-04-09T04:12:53.707Z,4.80
2023-04-09T04:15:30.529Z,4.97
2023-04-09T04:17:57.235Z,4.90
2023-04-09T04:20:41.232Z,4.47
2023-04-09T04:23:12.123Z,3.90
2023-04-09T04:25:47.165Z,3.97
2023-04-09T04:28:18.187Z,4.90
2023-04-09T04:30:45.711Z,5.40
2023-04-09T04:33:13.168Z,5.10
2023-04-09T04:35:45.563Z,4.93
2023-04-09T04:38:28.981Z,4.43
2023-04-09T04:40:56.990Z,4.67
2023-04-09T04:43:24.184Z,4.53
2023-04-09T04:45:54.165Z,4.57
2023-04-09T04:48:24.644Z,4.73
2023-04-09T04:50:59.006Z,4.97
2023-04-09T04:53:29.920Z,4.90
2023-04-09T04:55:59.528Z,4.97
2023-04-09T04:58:27.193Z,4.10
2023-04-09T05:00:58.044Z,5.17
2023-04-09T05:03:27.014Z,4.77
2023-04-09T05:06:13.206Z,5.30
2023-04-09T05:08:43.416Z,4.97
2023-04-09T05:11:12.794Z,4.80
2023-04-09T05:13:40.663Z,4.83
2023-04-09T05:16:19.382Z,5.17
2023-04-09T05:18:52.277Z,5.20
2023-04-09T05:21:19.191Z,5.67
2023-04-09T05:23:46.680Z,5.50
2023-04-09T05:26:13.480Z,5.30
2023-04-09T05:28:53.948Z,4.80
2023-04-09T05:31:22.563Z,5.23
2023-04-09T05:33:56.374Z,5.97
2023-04-09T05:36:32.557Z,5.53
2023-04-09T05:39:00.295Z,5.33
2023-04-09T05:41:26.978Z,5.00
2023-04-09T05:44:07.703Z,4.60
2023-04-09T05:46:37.640Z,5.20
2023-04-09T05:49:04.855Z,5.03
2023-04-09T05:51:33.578Z,4.83
2023-04-09T05:54:01.173Z,4.57
2023-04-09T05:56:33.025Z,4.87
2023-04-09T05:59:00.582Z,5.47
2023-04-09T06:01:27.530Z,5.10
2023-04-09T06:03:57.827Z,5.07
2023-04-09T06:06:25.001Z,4.87
2023-04-09T06:08:51.749Z,5.03
2023-04-09T06:11:18.567Z,5.17
2023-04-09T06:13:45.323Z,5.17
2023-04-09T06:16:12.100Z,4.87
2023-04-09T06:18:38.818Z,5.10
2023-04-09T06:21:06.911Z,5.17
2023-04-09T06:23:35.264Z,5.20
2023-04-09T06:26:02.392Z,5.33
2023-04-09T06:28:29.479Z,5.43
2023-04-09T06:30:56.167Z,7.03
2023-04-09T06:33:23.141Z,5.57
2023-04-09T06:35:49.993Z,6.20
2023-04-09T06:38:17.164Z,5.70
2023-04-09T06:40:44.546Z,5.63
2023-04-09T06:43:11.233Z,5.07
2023-04-09T06:45:43.988Z,5.37
2023-04-09T06:48:11.375Z,6.50
2023-04-09T06:50:38.077Z,5.77
2023-04-09T06:53:06.928Z,6.30
2023-04-09T06:55:33.644Z,6.60
2023-04-09T06:58:01.196Z,6.43
2023-04-09T07:00:28.072Z,7.67
2023-04-09T07:02:54.931Z,8.73
2023-04-09T07:05:22.566Z,7.80
2023-04-09T07:07:49.356Z,7.60
2023-04-09T07:10:16.429Z,8.33
2023-04-09T07:12:43.131Z,9.23
2023-04-09T07:15:10.051Z,9.20
2023-04-09T07:17:36.823Z,8.60
2023-04-09T07:20:04.077Z,8.80
2023-04-09T07:22:31.062Z,9.30
2023-04-09T07:24:57.838Z,8.93
2023-04-09T07:27:26.442Z,9.00
2023-04-09T07:30:00.329Z,7.90
2023-04-09T07:32:30.826Z,8.97
2023-04-09T07:34:59.371Z,8.40
2023-04-09T07:37:26.985Z,8.97
2023-04-09T07:39:53.987Z,9.07
2023-04-09T07:42:20.767Z,9.80
2023-04-09T07:44:47.513Z,11.20
2023-04-09T07:47:14.253Z,9.30
2023-04-09T07:49:41.011Z,9.63
2023-04-09T07:52:08.130Z,9.63
2023-04-09T07:54:35.360Z,10.40
2023-04-09T07:57:02.654Z,10.30
2023-04-09T07:59:30.704Z,9.40
2023-04-09T08:01:57.636Z,10.13
2023-04-09T08:04:24.744Z,10.40
2023-04-09T08:06:51.783Z,9.87
2023-04-09T08:09:18.686Z,10.47
2023-04-09T08:11:46.066Z,9.53
2023-04-09T08:14:13.375Z,10.10
2023-04-09T08:16:44.667Z,9.10
2023-04-09T08:19:12.019Z,9.37
2023-04-09T08:21:40.202Z,9.17
2023-04-09T08:24:07.190Z,9.33
2023-04-09T08:26:33.917Z,9.33
2023-04-09T08:29:01.411Z,8.07
2023-04-09T08:31:28.143Z,8.77
2023-04-09T08:33:54.898Z,9.17
2023-04-09T08:36:22.132Z,9.00
2023-04-09T08:38:49.120Z,8.27
2023-04-09T08:41:20.961Z,8.50
2023-04-09T08:43:57.672Z,9.07
2023-04-09T08:46:26.127Z,9.10
2023-04-09T08:48:53.642Z,7.90
2023-04-09T08:51:22.567Z,7.97
2023-04-09T08:53:57.584Z,7.07
2023-04-09T08:56:24.646Z,7.17
2023-04-09T08:58:51.721Z,7.57
2023-04-09T09:01:32.442Z,8.23
2023-04-09T09:04:07.331Z,7.73
2023-04-09T09:06:36.023Z,7.03
2023-04-09T09:09:14.327Z,6.63
2023-04-09T09:11:42.170Z,6.67
2023-04-09T09:14:13.989Z,6.73
2023-04-09T09:17:03.550Z,6.13
2023-04-09T09:19:33.405Z,4.80
2023-04-09T09:22:07.996Z,4.80
2023-04-09T09:24:47.169Z,4.90
2023-04-09T09:27:43.095Z,5.03
2023-04-09T09:30:20.222Z,4.57
2023-04-09T09:32:46.991Z,4.70
2023-04-09T09:35:14.020Z,5.33
2023-04-09T09:37:40.649Z,5.20
2023-04-09T09:40:07.914Z,5.33
2023-04-09T09:42:34.605Z,5.13
2023-04-09T09:45:03.768Z,5.53
2023-04-09T09:47:31.780Z,5.73
2023-04-09T09:49:58.522Z,5.30
2023-04-09T09:52:30.152Z,5.00
2023-04-09T09:55:01.119Z,4.50
2023-04-09T09:57:30.583Z,5.50
2023-04-09T10:00:07.941Z,5.50
2023-04-09T10:02:48.070Z,5.13
2023-04-09T10:05:15.597Z,5.10
2023-04-09T10:07:42.846Z,5.63
2023-04-09T10:10:09.884Z,5.00
2023-04-09T10:12:36.751Z,5.20
2023-04-09T10:15:06.057Z,4.23
2023-04-09T10:17:32.790Z,4.33
2023-04-09T10:20:12.788Z,3.90
2023-04-09T10:22:39.897Z,4.60
2023-04-09T10:25:07.374Z,4.30
2023-04-09T10:27:34.046Z,4.63
2023-04-09T10:30:01.745Z,4.30
2023-04-09T10:32:36.068Z,4.60
2023-04-09T10:35:04.182Z,4.67
2023-04-09T10:37:31.657Z,4.70
2023-04-09T10:39:58.620Z,7.00
2023-04-09T10:42:37.091Z,6.23
2023-04-09T10:45:14.775Z,7.03
2023-04-09T10:47:43.299Z,7.27
2023-04-09T10:50:24.379Z,6.23
2023-04-09T10:53:00.116Z,5.70
2023-04-09T10:55:37.456Z,4.50
2023-04-09T10:58:11.948Z,3.87
2023-04-09T11:00:47.683Z,3.97
2023-04-09T11:03:24.935Z,4.33
2023-04-09T11:05:53.017Z,3.77
2023-04-09T11:08:21.868Z,4.70
2023-04-09T11:10:51.359Z,5.00
2023-04-09T11:13:20.869Z,3.87
2023-04-09T11:15:47.766Z,4.50
2023-04-09T11:18:35.517Z,6.10
2023-04-09T11:21:04.431Z,5.90
2023-04-09T11:23:32.374Z,5.67
2023-04-09T11:25:59.146Z,3.60
2023-04-09T11:28:27.133Z,3.83
2023-04-09T11:30:54.021Z,3.20
2023-04-09T11:33:21.243Z,3.63
2023-04-09T11:35:48.597Z,3.50
2023-04-09T11:38:15.717Z,3.80
2023-04-09T11:40:48.245Z,3.00
2023-04-09T11:43:20.764Z,3.10
2023-04-09T11:45:48.592Z,3.43
2023-04-09T11:48:18.267Z,3.50
2023-04-09T11:50:45.719Z,3.67
2023-04-09T11:53:19.818Z,3.50
2023-04-09T11:55:53.556Z,3.77
2023-04-09T11:58:25.491Z,3.77
2023-04-09T12:00:57.908Z,3.70
2023-04-09T12:03:30.621Z,4.97
2023-04-09T12:06:01.013Z,3.27
2023-04-09T12:08:27.974Z,4.27
2023-04-09T12:10:54.724Z,3.37
2023-04-09T12:13:21.860Z,3.87
2023-04-09T12:15:49.935Z,4.20
2023-04-09T12:18:16.751Z,3.60
2023-04-09T12:20:46.584Z,3.50
2023-04-09T12:23:13.736Z,4.77
2023-04-09T12:25:42.881Z,4.20
2023-04-09T12:28:15.474Z,4.90
2023-04-09T12:30:43.222Z,5.30
2023-04-09T12:33:11.105Z,4.37
2023-04-09T12:35:38.624Z,4.20
2023-04-09T12:38:05.562Z,4.53
2023-04-09T12:40:32.277Z,4.80
2023-04-09T12:42:59.088Z,4.37
2023-04-09T12:45:25.989Z,4.23
2023-04-09T12:47:53.008Z,3.73
2023-04-09T12:50:20.012Z,4.10
2023-04-09T12:52:47.027Z,5.10
2023-04-09T12:55:14.884Z,3.83
2023-04-09T12:57:45.847Z,3.70
2023-04-09T13:00:13.417Z,3.90
2023-04-09T13:02:40.657Z,5.30
2023-04-09T13:05:07.842Z,3.63
2023-04-09T13:07:34.533Z,4.10
2023-04-09T13:10:01.402Z,3.77
2023-04-09T13:12:28.154Z,3.33
2023-04-09T13:14:55.106Z,3.87
2023-04-09T13:17:22.520Z,4.07
2023-04-09T13:19:50.602Z,3.73
2023-04-09T13:22:18.253Z,4.33
2023-04-09T13:24:44.919Z,3.90
2023-04-09T13:27:11.678Z,3.70
2023-04-09T13:29:38.770Z,3.93
2023-04-09T13:32:10.713Z,3.90
2023-04-09T13:34:38.858Z,3.97
2023-04-09T13:37:05.585Z,3.07
2023-04-09T13:39:32.830Z,3.30
2023-04-09T13:42:01.315Z,3.63
2023-04-09T13:44:28.998Z,3.90
2023-04-09T13:46:55.676Z,3.50
2023-04-09T13:49:22.424Z,3.67
2023-04-09T13:51:50.118Z,2.70
2023-04-09T13:54:17.436Z,3.33
2023-04-09T13:56:45.417Z,3.00
2023-04-09T13:59:12.482Z,3.03
2023-04-09T14:01:39.210Z,3.20
2023-04-09T14:04:06.113Z,2.77
2023-04-09T14:06:32.894Z,3.23
2023-04-09T14:08:59.555Z,3.53
2023-04-09T14:11:26.262Z,3.53
2023-04-09T14:13:53.307Z,3.40
2023-04-09T14:16:20.358Z,3.10
2023-04-09T14:18:47.101Z,3.10
2023-04-09T14:21:13.921Z,3.57
2023-04-09T14:23:40.634Z,3.20
2023-04-09T14:26:07.680Z,3.13
2023-04-09T14:28:34.493Z,3.73
2023-04-09T14:31:01.573Z,3.50
2023-04-09T14:33:28.523Z,3.20
2023-04-09T14:35:55.386Z,3.43
2023-04-09T14:38:24.064Z,3.80
2023-04-09T14:40:51.485Z,3.73
2023-04-09T14:43:18.361Z,4.90
2023-04-09T14:45:45.099Z,4.17
2023-04-09T14:48:11.819Z,3.27
2023-04-09T14:50:38.540Z,7.13
2023-04-09T14:53:05.264Z,4.40
2023-04-09T14:55:32.094Z,3.80
2023-04-09T14:58:01.476Z,3.33
2023-04-09T15:00:28.265Z,2.70
2023-04-09T15:02:55.286Z,2.93
2023-04-09T15:05:22.383Z,2.97
2023-04-09T15:07:49.065Z,2.43
2023-04-09T15:10:15.865Z,3.27
2023-04-09T15:12:42.569Z,2.93
2023-04-09T15:15:09.779Z,3.13
2023-04-09T15:17:36.755Z,2.67
2023-04-09T15:20:04.101Z,2.87
2023-04-09T15:22:31.097Z,2.90
2023-04-09T15:24:57.916Z,3.17
2023-04-09T15:27:24.606Z,2.90
2023-04-09T15:29:51.899Z,2.63
2023-04-09T15:32:19.206Z,2.60
2023-04-09T15:34:46.040Z,5.30
2023-04-09T15:37:12.967Z,2.70
2023-04-09T15:39:39.708Z,2.83
2023-04-09T15:42:08.751Z,3.50
2023-04-09T15:44:36.773Z,2.97
2023-04-09T15:47:03.489Z,3.23
2023-04-09T15:49:30.212Z,2.87
2023-04-09T15:51:56.863Z,2.47
2023-04-09T15:54:23.593Z,2.80
2023-04-09T15:56:50.285Z,2.77
2023-04-09T15:59:18.932Z,2.73
2023-04-09T16:01:45.823Z,2.60
2023-04-09T16:04:12.696Z,2.53
2023-04-09T16:06:39.565Z,1.90
2023-04-09T16:09:06.356Z,2.53
2023-04-09T16:11:35.795Z,2.67
2023-04-09T16:14:02.602Z,3.10
2023-04-09T16:16:29.522Z,2.80
2023-04-09T16:18:56.424Z,2.47
2023-04-09T16:21:23.185Z,2.73
2023-04-09T16:23:49.839Z,2.70
2023-04-09T16:26:16.574Z,2.80
2023-04-09T16:28:43.306Z,2.40
2023-04-09T16:31:10.264Z,2.17
2023-04-09T16:33:37.016Z,2.13
2023-04-09T16:36:04.133Z,1.90
2023-04-09T16:38:31.207Z,2.17
2023-04-09T16:40:57.974Z,2.40
2023-04-09T16:43:25.859Z,2.50
2023-04-09T16:45:53.078Z,2.23
2023-04-09T16:48:19.907Z,2.20
2023-04-09T16:50:46.600Z,2.30
2023-04-09T16:53:13.270Z,2.07
2023-04-09T16:55:40.029Z,2.27
2023-04-09T16:58:06.753Z,2.33
2023-04-09T17:00:35.217Z,2.30
2023-04-09T17:03:02.244Z,2.30
2023-04-09T17:05:29.423Z,2.20
2023-04-09T17:07:56.121Z,2.87
2023-04-09T17:10:22.906Z,2.07
2023-04-09T17:12:50.570Z,2.03
2023-04-09T17:15:17.738Z,1.97
2023-04-09T17:17:45.864Z,2.10
2023-04-09T17:20:12.963Z,2.00
2023-04-09T17:22:39.916Z,1.97
2023-04-09T17:25:07.134Z,1.97
2023-04-09T17:27:33.861Z,2.00
2023-04-09T17:30:00.657Z,2.13
2023-04-09T17:32:27.564Z,1.87
2023-04-09T17:34:54.312Z,1.80
2023-04-09T17:37:21.230Z,1.93
2023-04-09T17:39:47.971Z,2.27
2023-04-09T17:42:14.705Z,2.00
2023-04-09T17:44:43.653Z,1.90
2023-04-09T17:47:12.230Z,2.33
2023-04-09T17:49:39.383Z,2.67
2023-04-09T17:52:06.164Z,2.27
2023-04-09T17:54:34.472Z,2.83
2023-04-09T17:57:04.033Z,3.53
2023-04-09T17:59:32.166Z,3.70
2023-04-09T18:01:59.290Z,3.23
2023-04-09T18:04:27.034Z,3.37
2023-04-09T18:06:54.602Z,5.20
2023-04-09T18:09:21.396Z,13.27
2023-04-09T18:11:48.920Z,8.90
2023-04-09T18:14:15.760Z,2.80
2023-04-09T18:16:42.617Z,2.63
2023-04-09T18:19:11.923Z,3.27
2023-04-09T18:21:39.084Z,3.17
2023-04-09T18:24:06.062Z,2.10
2023-04-09T18:26:33.848Z,1.97
2023-04-09T18:29:01.403Z,2.47
2023-04-09T18:31:28.563Z,2.70
2023-04-09T18:33:56.094Z,2.10
2023-04-09T18:36:23.083Z,2.13
2023-04-09T18:38:49.752Z,2.13
2023-04-09T18:41:26.419Z,2.70
2023-04-09T18:43:53.852Z,3.53
2023-04-09T18:46:20.717Z,3.63
2023-04-09T18:48:47.466Z,4.23
2023-04-09T18:51:14.527Z,3.93
2023-04-09T18:53:41.895Z,3.23
2023-04-09T18:56:08.795Z,3.20
2023-04-09T18:58:36.173Z,2.50
2023-04-09T19:01:12.313Z,2.37
2023-04-09T19:03:40.014Z,2.50
2023-04-09T19:06:18.243Z,2.47
2023-04-09T19:08:46.074Z,2.60
2023-04-09T19:11:13.801Z,3.10
2023-04-09T19:13:40.506Z,2.40
2023-04-09T19:16:09.300Z,2.77
2023-04-09T19:18:37.217Z,5.13
2023-04-09T19:21:05.011Z,4.43
2023-04-09T19:23:34.003Z,4.03
2023-04-09T19:26:01.562Z,3.17
2023-04-09T19:28:28.310Z,3.70
2023-04-09T19:30:55.289Z,3.37
2023-04-09T19:33:23.000Z,3.13
2023-04-09T19:35:50.628Z,3.70
2023-04-09T19:38:18.319Z,3.50
2023-04-09T19:40:45.868Z,3.30
2023-04-09T19:43:12.597Z,3.30
2023-04-09T19:45:39.974Z,3.03
2023-04-09T19:48:07.075Z,2.70
2023-04-09T19:50:37.897Z,3.07
2023-04-09T19:53:05.903Z,3.80
2023-04-09T19:55:36.229Z,3.37
2023-04-09T19:58:03.207Z,3.57
2023-04-09T20:00:30.509Z,3.30
2023-04-09T20:02:57.717Z,3.80
2023-04-09T20:05:24.761Z,4.43
2023-04-09T20:07:52.764Z,5.10
2023-04-09T20:10:20.019Z,5.73
2023-04-09T20:12:48.321Z,5.13
2023-04-09T20:15:17.362Z,4.37
2023-04-09T20:17:44.159Z,4.30
2023-04-09T20:20:11.740Z,4.10
2023-04-09T20:22:42.920Z,3.80
2023-04-09T20:25:11.772Z,3.70
2023-04-09T20:27:38.684Z,4.40
2023-04-09T20:30:06.475Z,3.60
2023-04-09T20:32:33.194Z,3.60
2023-04-09T20:34:59.892Z,3.20
2023-04-09T20:37:26.533Z,3.33
2023-04-09T20:39:53.159Z,3.33
2023-04-09T20:42:19.750Z,4.00
2023-04-09T20:44:46.418Z,4.20
2023-04-09T20:47:13.365Z,3.20
2023-04-09T20:49:40.040Z,3.73
2023-04-09T20:52:09.268Z,3.30
2023-04-09T20:54:36.320Z,3.53
2023-04-09T20:57:05.585Z,6.57
2023-04-09T20:59:32.495Z,3.23
2023-04-09T21:01:59.263Z,3.17
2023-04-09T21:04:26.345Z,3.17
2023-04-09T21:06:53.200Z,2.97
2023-04-09T21:09:19.902Z,4.07
2023-04-09T21:11:46.835Z,3.83
2023-04-09T21:14:14.606Z,3.90
2023-04-09T21:16:41.373Z,3.77
2023-04-09T21:19:08.132Z,3.50
2023-04-09T21:21:35.284Z,3.50
2023-04-09T21:24:02.088Z,3.37
2023-04-09T21:26:35.823Z,3.33
2023-04-09T21:29:11.924Z,3.13
2023-04-09T21:31:38.780Z,3.00
2023-04-09T21:34:05.482Z,3.33
2023-04-09T21:36:36.144Z,3.17
2023-04-09T21:39:03.245Z,3.10
2023-04-09T21:41:29.956Z,3.30
2023-04-09T21:43:56.661Z,4.60
2023-04-09T21:46:23.608Z,5.10
2023-04-09T21:48:50.324Z,6.57
2023-04-09T21:51:17.004Z,4.80
2023-04-09T21:53:43.641Z,5.10
2023-04-09T21:56:10.288Z,4.30
2023-04-09T21:58:36.998Z,4.23
2023-04-09T22:01:03.751Z,4.10
2023-04-09T22:03:30.661Z,3.97
2023-04-09T22:05:57.520Z,3.27
2023-04-09T22:08:24.306Z,3.40
2023-04-09T22:10:51.029Z,3.63
2023-04-09T22:13:17.662Z,3.60
2023-04-09T22:15:44.319Z,3.67
2023-04-09T22:18:10.973Z,3.83
2023-04-09T22:20:37.616Z,3.93
2023-04-09T22:23:04.249Z,3.90
2023-04-09T22:25:34.849Z,4.00
2023-04-09T22:28:01.868Z,4.37
2023-04-09T22:30:28.615Z,5.60
2023-04-09T22:32:55.289Z,5.67
2023-04-09T22:35:21.962Z,5.37
2023-04-09T22:37:48.617Z,4.10
2023-04-09T22:40:16.016Z,4.33
2023-04-09T22:42:43.911Z,4.20
2023-04-09T22:45:11.168Z,4.23
2023-04-09T22:47:38.650Z,3.70
2023-04-09T22:50:06.949Z,4.50
2023-04-09T22:52:33.600Z,4.20
2023-04-09T22:55:00.366Z,3.80
2023-04-09T22:57:27.049Z,4.30
2023-04-09T22:59:53.750Z,3.70
2023-04-09T23:02:20.656Z,3.97
2023-04-09T23:04:47.630Z,4.00
2023-04-09T23:07:14.330Z,3.87
2023-04-09T23:09:41.246Z,4.93
2023-04-09T23:12:07.906Z,4.83
2023-04-09T23:14:34.593Z,4.23
2023-04-09T23:17:01.233Z,4.43
2023-04-09T23:19:27.882Z,4.57
2023-04-09T23:21:54.521Z,4.73
2023-04-09T23:24:21.223Z,5.07
2023-04-09T23:26:47.843Z,4.37
2023-04-09T23:29:14.492Z,5.27
2023-04-09T23:31:41.360Z,5.13
2023-04-09T23:34:08.095Z,4.70
2023-04-09T23:36:34.786Z,4.60
2023-04-09T23:39:01.446Z,4.37
2023-04-09T23:41:28.092Z,4.87
2023-04-09T23:43:55.116Z,4.70
2023-04-09T23:46:22.759Z,5.53
2023-04-09T23:48:49.470Z,4.67
2023-04-09T23:51:19.668Z,5.03
2023-04-09T23:53:46.711Z,5.13
2023-04-09T23:56:16.510Z,5.00
2023-04-09T23:58:43.338Z,5.10
